sensor_id;sensor_type;location;lat;lon;timestamp;pressure;altitude;pressure_sealevel;temperature;humidity
52797;BME280;38666;43.348;12.584;2023-02-15T06:53:58;96931.69;;;3.18;47.63
52797;BME280;38666;43.348;12.584;2023-02-15T06:56:24;96927.53;;;3.29;48.25
52797;BME280;38666;43.348;12.584;2023-02-15T06:58:49;96929.06;;;3.48;48.40
52797;BME280;38666;43.348;12.584;2023-02-15T07:01:15;96934.56;;;3.69;48.24
52797;BME280;38666;43.348;12.584;2023-02-15T07:03:41;96933.69;;;3.87;47.04
52797;BME280;38666;43.348;12.584;2023-02-15T07:06:07;96937.94;;;4.05;47.47
52797;BME280;38666;43.348;12.584;2023-02-15T07:08:35;96933.66;;;4.26;47.02
52797;BME280;38666;43.348;12.584;2023-02-15T07:11:01;96937.06;;;4.44;45.98
52797;BME280;38666;43.348;12.584;2023-02-15T07:13:46;96929.91;;;4.69;45.38
52797;BME280;38666;43.348;12.584;2023-02-15T07:16:12;96931.94;;;4.94;44.92
52797;BME280;38666;43.348;12.584;2023-02-15T07:18:38;96933.94;;;5.18;44.07
52797;BME280;38666;43.348;12.584;2023-02-15T07:21:04;96928.38;;;5.49;42.99
52797;BME280;38666;43.348;12.584;2023-02-15T07:23:39;96923.13;;;5.90;42.44
52797;BME280;38666;43.348;12.584;2023-02-15T07:26:06;96929.59;;;6.35;40.52
52797;BME280;38666;43.348;12.584;2023-02-15T07:28:33;96933.59;;;6.79;39.80
52797;BME280;38666;43.348;12.584;2023-02-15T07:31:01;96934.25;;;6.89;42.09
52797;BME280;38666;43.348;12.584;2023-02-15T07:33:27;96925.19;;;7.42;41.72
52797;BME280;38666;43.348;12.584;2023-02-15T07:35:54;96928.13;;;7.98;41.13
52797;BME280;38666;43.348;12.584;2023-02-15T07:38:22;96930.69;;;8.42;39.54
52797;BME280;38666;43.348;12.584;2023-02-15T07:40:48;96916.06;;;8.87;38.80
52797;BME280;38666;43.348;12.584;2023-02-15T07:43:13;96911.19;;;9.36;37.74
52797;BME280;38666;43.348;12.584;2023-02-15T07:45:39;96907.31;;;10.07;36.91
52797;BME280;38666;43.348;12.584;2023-02-15T07:48:06;96907.72;;;10.36;35.71
52797;BME280;38666;43.348;12.584;2023-02-15T07:50:32;96906.75;;;10.79;36.06
52797;BME280;38666;43.348;12.584;2023-02-15T07:52:57;96904.66;;;11.00;35.55
52797;BME280;38666;43.348;12.584;2023-02-15T07:55:24;96905.66;;;12.02;33.91
52797;BME280;38666;43.348;12.584;2023-02-15T07:57:50;96904.97;;;11.67;33.60
52797;BME280;38666;43.348;12.584;2023-02-15T08:00:17;96913.28;;;11.78;33.82
52797;BME280;38666;43.348;12.584;2023-02-15T08:02:50;96906.69;;;12.35;32.52
52797;BME280;38666;43.348;12.584;2023-02-15T08:05:36;96910.69;;;12.52;32.41
52797;BME280;38666;43.348;12.584;2023-02-15T08:08:01;96907.88;;;13.23;31.31
52797;BME280;38666;43.348;12.584;2023-02-15T08:10:27;96906.25;;;13.08;31.02
52797;BME280;38666;43.348;12.584;2023-02-15T08:13:12;96904.09;;;13.79;29.88
52797;BME280;38666;43.348;12.584;2023-02-15T08:15:38;96901.69;;;14.47;29.46
52797;BME280;38666;43.348;12.584;2023-02-15T08:18:03;96902.31;;;15.10;28.39
52797;BME280;38666;43.348;12.584;2023-02-15T08:20:29;96906.25;;;15.01;28.16
52797;BME280;38666;43.348;12.584;2023-02-15T08:22:54;96902.16;;;15.32;28.14
52797;BME280;38666;43.348;12.584;2023-02-15T08:25:20;96902.53;;;16.02;27.70
52797;BME280;38666;43.348;12.584;2023-02-15T08:27:45;96899.22;;;16.60;26.67
52797;BME280;38666;43.348;12.584;2023-02-15T08:30:11;96901.31;;;17.50;25.44
52797;BME280;38666;43.348;12.584;2023-02-15T08:32:37;96899.84;;;18.21;24.15
52797;BME280;38666;43.348;12.584;2023-02-15T08:35:02;96901.41;;;17.70;25.36
52797;BME280;38666;43.348;12.584;2023-02-15T08:37:28;96906.72;;;18.77;23.87
52797;BME280;38666;43.348;12.584;2023-02-15T08:39:53;96899.66;;;18.76;24.09
52797;BME280;38666;43.348;12.584;2023-02-15T08:42:19;96913.28;;;17.95;25.07
52797;BME280;38666;43.348;12.584;2023-02-15T08:44:46;96910.59;;;17.01;26.56
52797;BME280;38666;43.348;12.584;2023-02-15T08:47:11;96898.88;;;17.55;26.15
52797;BME280;38666;43.348;12.584;2023-02-15T08:49:37;96907.66;;;18.50;25.30
52797;BME280;38666;43.348;12.584;2023-02-15T08:52:02;96902.19;;;19.07;24.56
52797;BME280;38666;43.348;12.584;2023-02-15T08:54:28;96902.63;;;19.63;24.48
52797;BME280;38666;43.348;12.584;2023-02-15T08:56:53;96899.31;;;21.11;22.23
52797;BME280;38666;43.348;12.584;2023-02-15T08:59:21;96900.06;;;20.99;22.32
52797;BME280;38666;43.348;12.584;2023-02-15T09:01:48;96904.91;;;21.50;22.00
52797;BME280;38666;43.348;12.584;2023-02-15T09:04:15;96893.44;;;20.92;22.29
52797;BME280;38666;43.348;12.584;2023-02-15T09:06:42;96895.31;;;22.52;20.91
52797;BME280;38666;43.348;12.584;2023-02-15T09:09:10;96908.69;;;22.80;20.72
52797;BME280;38666;43.348;12.584;2023-02-15T09:11:43;96906.91;;;21.63;21.72
52797;BME280;38666;43.348;12.584;2023-02-15T09:14:12;96901.06;;;22.93;20.64
52797;BME280;38666;43.348;12.584;2023-02-15T09:16:39;96893.13;;;24.19;19.11
52797;BME280;38666;43.348;12.584;2023-02-15T09:19:05;96896.66;;;25.23;18.24
52797;BME280;38666;43.348;12.584;2023-02-15T09:21:35;96905.38;;;25.06;18.11
52797;BME280;38666;43.348;12.584;2023-02-15T09:24:03;96912.38;;;24.73;18.49
52797;BME280;38666;43.348;12.584;2023-02-15T09:26:31;96906.09;;;24.13;18.97
52797;BME280;38666;43.348;12.584;2023-02-15T09:28:59;96899.47;;;25.66;17.77
52797;BME280;38666;43.348;12.584;2023-02-15T09:31:28;96899.00;;;26.26;17.09
52797;BME280;38666;43.348;12.584;2023-02-15T09:33:54;96899.25;;;26.38;16.71
52797;BME280;38666;43.348;12.584;2023-02-15T09:36:32;96902.97;;;26.44;16.76
52797;BME280;38666;43.348;12.584;2023-02-15T09:39:01;96906.00;;;27.10;15.93
52797;BME280;38666;43.348;12.584;2023-02-15T09:44:37;96902.84;;;26.93;15.97
52797;BME280;38666;43.348;12.584;2023-02-15T09:53:02;96896.09;;;29.27;14.33
52797;BME280;38666;43.348;12.584;2023-02-15T10:10:24;96902.38;;;29.81;12.25
52797;BME280;38666;43.348;12.584;2023-02-15T10:21:23;96905.00;;;31.24;11.63
52797;BME280;38666;43.348;12.584;2023-02-15T10:26:48;96907.59;;;31.56;11.61
52797;BME280;38666;43.348;12.584;2023-02-15T10:32:00;96901.25;;;32.44;9.20
52797;BME280;38666;43.348;12.584;2023-02-15T10:34:51;96893.16;;;33.19;8.59
52797;BME280;38666;43.348;12.584;2023-02-15T10:37:31;96898.84;;;32.71;7.05
52797;BME280;38666;43.348;12.584;2023-02-15T10:40:23;96891.63;;;34.49;6.34
52797;BME280;38666;43.348;12.584;2023-02-15T10:51:19;96892.91;;;32.75;8.00
52797;BME280;38666;43.348;12.584;2023-02-15T10:56:24;96881.38;;;34.85;5.50
52797;BME280;38666;43.348;12.584;2023-02-15T10:59:23;96871.63;;;33.97;6.74
52797;BME280;38666;43.348;12.584;2023-02-15T11:02:10;96872.00;;;33.82;6.76
52797;BME280;38666;43.348;12.584;2023-02-15T11:07:47;96865.50;;;36.91;6.15
52797;BME280;38666;43.348;12.584;2023-02-15T11:12:42;96860.13;;;35.71;6.32
52797;BME280;38666;43.348;12.584;2023-02-15T11:15:25;96853.84;;;33.96;6.68
52797;BME280;38666;43.348;12.584;2023-02-15T11:17:56;96850.28;;;35.45;6.82
52797;BME280;38666;43.348;12.584;2023-02-15T11:22:58;96845.31;;;35.92;6.84
52797;BME280;38666;43.348;12.584;2023-02-15T11:25:29;96848.59;;;36.71;6.58
52797;BME280;38666;43.348;12.584;2023-02-15T11:27:56;96849.47;;;35.90;6.15
52797;BME280;38666;43.348;12.584;2023-02-15T11:30:24;96842.22;;;36.44;6.18
52797;BME280;38666;43.348;12.584;2023-02-15T11:32:53;96841.25;;;35.73;6.02
52797;BME280;38666;43.348;12.584;2023-02-15T11:35:36;96837.63;;;36.41;5.33
52797;BME280;38666;43.348;12.584;2023-02-15T11:38:18;96832.41;;;38.02;5.08
52797;BME280;38666;43.348;12.584;2023-02-15T11:40:51;96831.00;;;38.70;4.59
52797;BME280;38666;43.348;12.584;2023-02-15T11:43:58;96828.75;;;38.23;5.13
52797;BME280;38666;43.348;12.584;2023-02-15T11:46:26;96824.66;;;34.65;5.84
52797;BME280;38666;43.348;12.584;2023-02-15T11:48:52;96819.09;;;37.97;4.86
52797;BME280;38666;43.348;12.584;2023-02-15T11:51:18;96818.66;;;38.83;4.86
52797;BME280;38666;43.348;12.584;2023-02-15T11:53:46;96816.59;;;39.85;4.72
52797;BME280;38666;43.348;12.584;2023-02-15T11:56:17;96809.97;;;38.36;4.67
52797;BME280;38666;43.348;12.584;2023-02-15T11:58:44;96801.22;;;38.34;5.06
52797;BME280;38666;43.348;12.584;2023-02-15T12:01:20;96805.75;;;35.80;5.79
52797;BME280;38666;43.348;12.584;2023-02-15T12:03:49;96797.97;;;35.67;6.05
52797;BME280;38666;43.348;12.584;2023-02-15T12:06:23;96785.63;;;37.61;5.73
52797;BME280;38666;43.348;12.584;2023-02-15T12:09:06;96787.69;;;36.67;5.87
52797;BME280;38666;43.348;12.584;2023-02-15T12:11:39;96789.88;;;36.12;6.30
52797;BME280;38666;43.348;12.584;2023-02-15T12:14:10;96785.94;;;34.87;6.68
52797;BME280;38666;43.348;12.584;2023-02-15T12:16:48;96780.25;;;37.78;5.60
52797;BME280;38666;43.348;12.584;2023-02-15T12:21:42;96775.03;;;36.06;6.47
52797;BME280;38666;43.348;12.584;2023-02-15T12:24:21;96774.47;;;36.91;6.29
52797;BME280;38666;43.348;12.584;2023-02-15T12:27:06;96771.88;;;34.95;6.99
52797;BME280;38666;43.348;12.584;2023-02-15T12:29:46;96774.63;;;37.65;6.06
52797;BME280;38666;43.348;12.584;2023-02-15T12:35:14;96758.72;;;39.53;5.32
52797;BME280;38666;43.348;12.584;2023-02-15T12:37:52;96755.81;;;37.91;5.37
52797;BME280;38666;43.348;12.584;2023-02-15T12:40:29;96761.59;;;35.65;6.42
52797;BME280;38666;43.348;12.584;2023-02-15T12:42:55;96757.47;;;35.39;6.53
52797;BME280;38666;43.348;12.584;2023-02-15T12:50:34;96747.88;;;40.16;5.22
52797;BME280;38666;43.348;12.584;2023-02-15T12:53:16;96736.28;;;42.13;3.79
52797;BME280;38666;43.348;12.584;2023-02-15T12:56:03;96741.03;;;40.04;4.71
52797;BME280;38666;43.348;12.584;2023-02-15T12:58:33;96735.00;;;37.38;5.94
52797;BME280;38666;43.348;12.584;2023-02-15T13:01:10;96734.03;;;39.97;4.79
52797;BME280;38666;43.348;12.584;2023-02-15T13:03:59;96729.84;;;36.85;5.92
52797;BME280;38666;43.348;12.584;2023-02-15T13:06:27;96728.94;;;36.91;5.79
52797;BME280;38666;43.348;12.584;2023-02-15T13:08:56;96718.97;;;39.08;5.05
52797;BME280;38666;43.348;12.584;2023-02-15T13:11:27;96724.50;;;39.22;4.91
52797;BME280;38666;43.348;12.584;2023-02-15T13:14:03;96721.19;;;39.57;5.17
52797;BME280;38666;43.348;12.584;2023-02-15T13:16:39;96718.28;;;37.42;5.46
52797;BME280;38666;43.348;12.584;2023-02-15T13:19:16;96714.16;;;38.33;5.58
52797;BME280;38666;43.348;12.584;2023-02-15T13:21:47;96721.41;;;40.41;5.20
52797;BME280;38666;43.348;12.584;2023-02-15T13:24:28;96725.78;;;40.76;4.08
52797;BME280;38666;43.348;12.584;2023-02-15T13:26:56;96728.44;;;40.48;4.91
52797;BME280;38666;43.348;12.584;2023-02-15T13:29:27;96717.91;;;39.76;4.43
52797;BME280;38666;43.348;12.584;2023-02-15T13:31:56;96715.13;;;37.90;5.60
52797;BME280;38666;43.348;12.584;2023-02-15T13:34:30;96718.56;;;37.60;5.43
52797;BME280;38666;43.348;12.584;2023-02-15T13:39:39;96723.16;;;40.03;4.53
52797;BME280;38666;43.348;12.584;2023-02-15T13:50:55;96709.78;;;36.70;5.12
52797;BME280;38666;43.348;12.584;2023-02-15T13:56:33;96708.47;;;37.80;5.03
52797;BME280;38666;43.348;12.584;2023-02-15T13:59:43;96708.09;;;36.96;5.25
52797;BME280;38666;43.348;12.584;2023-02-15T14:02:35;96712.09;;;33.19;6.92
52797;BME280;38666;43.348;12.584;2023-02-15T14:06:27;96711.63;;;34.56;5.88
52797;BME280;38666;43.348;12.584;2023-02-15T14:24:37;96699.06;;;37.05;5.15
52797;BME280;38666;43.348;12.584;2023-02-15T14:27:17;96699.88;;;36.84;5.03
52797;BME280;38666;43.348;12.584;2023-02-15T14:29:53;96702.22;;;37.23;4.89
52797;BME280;38666;43.348;12.584;2023-02-15T14:32:41;96701.53;;;36.23;4.88
52797;BME280;38666;43.348;12.584;2023-02-15T14:35:21;96705.00;;;35.00;5.76
52797;BME280;38666;43.348;12.584;2023-02-15T14:37:58;96710.31;;;36.47;5.29
52797;BME280;38666;43.348;12.584;2023-02-15T14:41:04;96702.44;;;33.97;5.81
52797;BME280;38666;43.348;12.584;2023-02-15T14:46:56;96702.16;;;31.97;6.80
52797;BME280;38666;43.348;12.584;2023-02-15T14:49:27;96707.00;;;31.26;7.24
52797;BME280;38666;43.348;12.584;2023-02-15T14:51:58;96703.41;;;31.36;6.97
52797;BME280;38666;43.348;12.584;2023-02-15T14:59:54;96705.91;;;34.42;6.07
52797;BME280;38666;43.348;12.584;2023-02-15T15:05:27;96708.25;;;32.55;7.01
52797;BME280;38666;43.348;12.584;2023-02-15T15:07:58;96709.38;;;35.01;5.99
52797;BME280;38666;43.348;12.584;2023-02-15T15:10:42;96712.94;;;34.55;6.05
52797;BME280;38666;43.348;12.584;2023-02-15T15:15:56;96703.03;;;34.29;6.41
52797;BME280;38666;43.348;12.584;2023-02-15T15:18:43;96705.66;;;32.88;6.43
52797;BME280;38666;43.348;12.584;2023-02-15T15:21:09;96716.75;;;31.30;7.58
52797;BME280;38666;43.348;12.584;2023-02-15T15:23:43;96711.66;;;30.54;8.05
52797;BME280;38666;43.348;12.584;2023-02-15T15:26:24;96705.78;;;30.92;7.97
52797;BME280;38666;43.348;12.584;2023-02-15T15:36:41;96710.63;;;31.15;7.60
52797;BME280;38666;43.348;12.584;2023-02-15T15:49:47;96703.69;;;33.33;6.89
52797;BME280;38666;43.348;12.584;2023-02-15T15:52:15;96703.81;;;33.21;7.24
52797;BME280;38666;43.348;12.584;2023-02-15T15:54:43;96701.09;;;32.79;6.74
52797;BME280;38666;43.348;12.584;2023-02-15T15:57:27;96709.88;;;31.03;7.95
52797;BME280;38666;43.348;12.584;2023-02-15T15:59:54;96710.44;;;29.22;8.95
52797;BME280;38666;43.348;12.584;2023-02-15T16:02:20;96702.03;;;27.20;10.27
52797;BME280;38666;43.348;12.584;2023-02-15T16:04:46;96719.50;;;25.45;11.92
52797;BME280;38666;43.348;12.584;2023-02-15T16:10:01;96719.03;;;23.79;13.00
52797;BME280;38666;43.348;12.584;2023-02-15T16:12:31;96726.16;;;23.11;12.47
52797;BME280;38666;43.348;12.584;2023-02-15T16:14:57;96727.97;;;22.63;13.45
52797;BME280;38666;43.348;12.584;2023-02-15T16:17:29;96733.13;;;22.07;15.08
52797;BME280;38666;43.348;12.584;2023-02-15T16:20:28;96739.84;;;21.96;15.27
52797;BME280;38666;43.348;12.584;2023-02-15T16:26:10;96753.88;;;21.31;16.51
52797;BME280;38666;43.348;12.584;2023-02-15T16:28:38;96747.19;;;20.89;16.77
52797;BME280;38666;43.348;12.584;2023-02-15T16:31:14;96746.72;;;20.52;16.83
52797;BME280;38666;43.348;12.584;2023-02-15T16:33:41;96747.25;;;20.33;17.19
52797;BME280;38666;43.348;12.584;2023-02-15T16:36:12;96747.94;;;19.91;17.97
52797;BME280;38666;43.348;12.584;2023-02-15T16:41:13;96745.75;;;19.19;18.11
52797;BME280;38666;43.348;12.584;2023-02-15T16:43:40;96742.66;;;18.97;18.23
52797;BME280;38666;43.348;12.584;2023-02-15T16:46:10;96744.78;;;18.72;18.19
52797;BME280;38666;43.348;12.584;2023-02-15T16:48:43;96745.72;;;18.65;18.49
52797;BME280;38666;43.348;12.584;2023-02-15T16:51:18;96749.22;;;18.29;19.53
52797;BME280;38666;43.348;12.584;2023-02-15T16:53:46;96746.28;;;17.96;19.47
52797;BME280;38666;43.348;12.584;2023-02-15T16:56:13;96749.66;;;17.83;19.55
52797;BME280;38666;43.348;12.584;2023-02-15T16:58:43;96745.97;;;17.69;19.33
52797;BME280;38666;43.348;12.584;2023-02-15T17:01:13;96750.88;;;17.58;19.23
52797;BME280;38666;43.348;12.584;2023-02-15T17:03:40;96760.34;;;17.33;19.47
52797;BME280;38666;43.348;12.584;2023-02-15T17:06:20;96759.06;;;17.14;19.62
52797;BME280;38666;43.348;12.584;2023-02-15T17:08:46;96764.75;;;16.99;19.88
52797;BME280;38666;43.348;12.584;2023-02-15T17:13:38;96759.63;;;16.73;20.19
52797;BME280;38666;43.348;12.584;2023-02-15T17:18:44;96764.19;;;16.53;20.19
52797;BME280;38666;43.348;12.584;2023-02-15T17:21:19;96763.66;;;16.34;19.96
52797;BME280;38666;43.348;12.584;2023-02-15T17:23:48;96763.06;;;16.15;20.40
52797;BME280;38666;43.348;12.584;2023-02-15T17:26:21;96774.91;;;16.12;20.69
52797;BME280;38666;43.348;12.584;2023-02-15T17:28:54;96771.03;;;16.06;20.33
52797;BME280;38666;43.348;12.584;2023-02-15T17:31:28;96768.06;;;15.85;20.98
52797;BME280;38666;43.348;12.584;2023-02-15T17:33:56;96775.25;;;15.75;21.00
52797;BME280;38666;43.348;12.584;2023-02-15T17:36:25;96779.19;;;15.71;21.71
52797;BME280;38666;43.348;12.584;2023-02-15T17:41:25;96783.66;;;15.57;21.85
52797;BME280;38666;43.348;12.584;2023-02-15T17:43:51;96779.06;;;15.39;22.46
52797;BME280;38666;43.348;12.584;2023-02-15T17:46:16;96783.84;;;15.32;22.01
52797;BME280;38666;43.348;12.584;2023-02-15T17:48:46;96787.47;;;15.21;22.20
52797;BME280;38666;43.348;12.584;2023-02-15T17:51:13;96782.78;;;15.14;22.16
52797;BME280;38666;43.348;12.584;2023-02-15T17:53:40;96793.16;;;14.88;23.20
52797;BME280;38666;43.348;12.584;2023-02-15T17:56:06;96793.63;;;14.72;23.76
52797;BME280;38666;43.348;12.584;2023-02-15T17:58:38;96796.00;;;14.63;23.57
52797;BME280;38666;43.348;12.584;2023-02-15T18:01:09;96787.00;;;14.55;23.71
52797;BME280;38666;43.348;12.584;2023-02-15T18:03:55;96802.75;;;14.47;24.04
52797;BME280;38666;43.348;12.584;2023-02-15T18:06:41;96811.41;;;14.42;23.85
52797;BME280;38666;43.348;12.584;2023-02-15T18:09:26;96820.06;;;14.29;24.01
52797;BME280;38666;43.348;12.584;2023-02-15T18:14:45;96816.94;;;14.24;24.69
52797;BME280;38666;43.348;12.584;2023-02-15T18:17:11;96815.00;;;14.20;24.83
52797;BME280;38666;43.348;12.584;2023-02-15T18:19:38;96810.66;;;14.23;24.64
52797;BME280;38666;43.348;12.584;2023-02-15T18:22:13;96815.03;;;14.10;24.72
52797;BME280;38666;43.348;12.584;2023-02-15T18:24:39;96813.84;;;14.03;25.13
52797;BME280;38666;43.348;12.584;2023-02-15T18:27:05;96809.94;;;14.01;25.14
52797;BME280;38666;43.348;12.584;2023-02-15T18:29:31;96808.38;;;13.92;25.88
52797;BME280;38666;43.348;12.584;2023-02-15T18:31:58;96822.53;;;13.76;25.84
52797;BME280;38666;43.348;12.584;2023-02-15T18:34:34;96820.94;;;13.60;25.30
52797;BME280;38666;43.348;12.584;2023-02-15T18:37:03;96824.44;;;13.46;26.39
52797;BME280;38666;43.348;12.584;2023-02-15T18:39:39;96827.56;;;13.41;26.29
52797;BME280;38666;43.348;12.584;2023-02-15T18:42:34;96820.91;;;13.39;26.57
52797;BME280;38666;43.348;12.584;2023-02-15T18:45:11;96833.41;;;13.25;26.42
52797;BME280;38666;43.348;12.584;2023-02-15T18:47:38;96836.53;;;13.12;27.42
52797;BME280;38666;43.348;12.584;2023-02-15T18:50:05;96838.09;;;13.06;27.60
